Latest Coastal Weather Observations for Wyndham Airport

IDD60701

Issued at 3:51 pm CST Wednesday 31 August 2016 (issued every 10 minutes, with the page automatically refreshed every 10 minutes)

About coastal observations | Map of coastal stations | Coastal observations for NT | Marine services | Other Formats
Station Details ID: 001006 Name: WYNDHAM AERO Lat: -15.51 Lon: 128.15 Height: 3.8 m
Data from the previous 72 hours. | See also: Recent months at Wyndham Airport
Date/Time
CST
Temp
°C
Wind Pressure Rain since
9am
mm
Weather Cloud Vis
km
Sea
Height
m
Swell
Dir  Spd
kts
Gust
kts
hPa Trend Height
m
Period
s
Dir
31/03:30pm 34.1 NNW 10 16 1011.5 - 0.0 - - - - - - -
31/03:00pm 33.8 NNE 7 11 1011.8 - 0.0 - - - - - - -
31/02:30pm 33.4 N 8 13 1012.3 - 0.0 - - - - - - -
31/02:00pm 33.7 N 8 13 1012.8 - 0.0 - - - - - - -
31/01:30pm 34.3 NNE 7 13 1013.2 - 0.0 - - - - - - -
31/01:00pm 32.6 WSW 3 5 1013.8 - 0.0 - - - - - - -
31/12:30pm 31.8 N 4 7 1014.4 - 0.0 - - - - - - -
31/12:00pm 31.9 NNE 6 9 1015.0 - 0.0 - - - - - - -
31/11:30am 31.1 NNW 5 8 1015.4 - 0.0 - - - - - - -
31/11:00am 32.4 ENE 5 9 1015.6 - 0.0 - - - - - - -
31/10:30am 31.6 NE 5 9 1015.9 - 0.0 - - - - - - -
31/10:00am 30.8 ENE 7 10 1016.0 - 0.0 - - - - - - -
31/09:30am 30.1 ESE 7 11 1015.9 - 0.0 - - - - - - -
31/09:00am 29.4 ESE 6 9 1015.6 - 0.0 - - - - - - -
31/08:30am 28.9 ESE 7 10 1015.3 - 0.0 - - - - - - -
31/08:00am 27.7 SSE 3 4 1015.1 - 0.0 - - - - - - -
31/07:30am 26.9 SSE 5 6 1014.8 - 0.0 - - - - - - -
31/07:00am 26.3 SSE 4 5 1014.5 - 0.0 - - - - - - -
31/06:30am 26.4 CALM 0 0 1014.2 - 0.0 - - - - - - -
31/06:00am 26.5 E 4 4 1013.8 - 0.0 - - - - - - -
31/05:30am 26.5 ESE 4 4 1013.6 - 0.0 - - - - - - -
31/05:00am 26.4 CALM 0 0 1013.3 - 0.0 - - - - - - -
31/04:30am 26.6 CALM 0 0 1013.3 - 0.0 - - - - - - -
31/04:00am 27.2 CALM 0 0 1013.2 - 0.0 - - - - - - -
31/03:30am 27.4 CALM 0 0 1013.3 - 0.0 - - - - - - -
31/03:00am 27.2 CALM 0 0 1013.5 - 0.0 - - - - - - -
31/02:30am 27.1 CALM 0 0 1013.6 - 0.0 - - - - - - -
31/02:00am 27.7 WNW 1 3 1013.6 - 0.0 - - - - - - -
31/01:30am 27.8 W 4 5 1013.7 - 0.0 - - - - - - -
31/01:00am 27.8 WSW 5 7 1013.8 - 0.0 - - - - - - -
31/12:30am 28.1 W 6 6 1014.1 - 0.0 - - - - - - -
31/12:00am 28.1 NW 5 7 1014.1 - 0.0 - - - - - - -
 
Date/Time
CST
Temp
°C
Wind Pressure Rain since
9am
mm
Weather Cloud Vis
km
Sea
Height
m
Swell
Dir  Spd
kts
Gust
kts
hPa Trend Height
m
Period
s
Dir
30/11:30pm 27.7 NNW 2 4 1014.1 - 0.0 - - - - - - -
30/11:00pm 27.9 NW 4 6 1014.2 - 0.0 - - - - - - -
30/10:30pm 28.0 NNW 5 8 1014.2 - 0.0 - - - - - - -
30/10:00pm 28.1 WNW 3 7 1014.2 - 0.0 - - - - - - -
30/09:30pm 28.1 NNW 7 10 1014.0 - 0.0 - - - - - - -
30/09:00pm 28.0 N 12 17 1013.5 - 0.0 - - - - - - -
30/08:30pm 28.3 N 13 18 1013.1 - 0.0 - - - - - - -
30/08:00pm 28.5 N 16 23 1012.5 - 0.0 - - - - - - -
30/07:30pm 28.9 N 15 20 1012.2 - 0.0 - - - - - - -
30/07:00pm 29.1 N 13 20 1011.9 - 0.0 - - - - - - -
30/06:30pm 29.8 N 12 17 1011.6 - 0.0 - - - - - - -
30/06:00pm 30.6 N 14 17 1011.3 - 0.0 - - - - - - -
30/05:30pm 32.3 N 12 16 1011.1 - 0.0 - - - - - - -
30/05:00pm 32.8 NNE 13 17 1010.8 - 0.0 - - - - - - -
30/04:30pm 33.4 NNW 12 16 1010.8 - 0.0 - - - - - - -
30/04:00pm 34.5 N 10 15 1010.9 - 0.0 - - - - - - -
30/03:30pm 33.5 N 10 15 1011.1 - 0.0 - - - - - - -
30/03:00pm 34.0 N 9 16 1011.3 - 0.0 - - - - - - -
30/02:30pm 34.5 NE 11 16 1011.8 - 0.0 - - - - - - -
30/02:00pm 34.4 N 10 16 1012.4 - 0.0 - - - - - - -
30/01:30pm 33.7 NNE 9 16 1012.9 - 0.0 - - - - - - -
30/01:00pm 33.1 NNE 10 15 1013.6 - 0.0 - - - - - - -
30/12:30pm 32.7 N 5 9 1014.2 - 0.0 - - - - - - -
30/12:00pm 32.1 N 6 12 1014.9 - 0.0 - - - - - - -
30/11:30am 30.8 N 9 15 1015.3 - 0.0 - - - - - - -
30/11:00am 31.7 N 7 13 1015.5 - 0.0 - - - - - - -
30/10:30am 29.8 SW 4 7 1016.0 - 0.0 - - - - - - -
30/10:00am 29.3 NNE 7 11 1015.8 - 0.0 - - - - - - -
30/09:30am 28.4 ESE 5 8 1015.8 - 0.0 - - - - - - -
30/09:00am 27.3 ESE 5 7 1015.6 - 0.0 - - - - - - -
30/08:30am 25.7 SE 9 11 1015.7 - 0.0 - - - - - - -
30/08:00am 23.7 E 7 8 1015.2 - 0.0 - - - - - - -
30/07:30am 23.0 CALM 0 0 1014.9 - 0.0 - - - - - - -
30/07:00am 23.3 NNE 2 4 1014.4 - 0.0 - - - - - - -
30/06:30am 24.3 N 6 7 1013.9 - 0.0 - - - - - - -
30/06:00am 23.4 NNE 4 5 1013.3 - 0.0 - - - - - - -
30/05:30am 23.7 CALM 0 0 1013.1 - 0.0 - - - - - - -
30/05:00am 23.2 N 3 4 1013.0 - 0.0 - - - - - - -
30/04:30am 23.0 CALM 0 0 1012.7 - 0.0 - - - - - - -
30/04:00am 24.2 CALM 0 0 1012.6 - 0.0 - - - - - - -
30/03:30am 24.6 CALM 0 0 1012.6 - 0.0 - - - - - - -
30/03:00am 24.6 WSW 4 5 1012.8 - 0.0 - - - - - - -
30/02:30am 25.3 W 6 7 1012.8 - 0.0 - - - - - - -
30/02:00am 25.1 W 6 7 1013.0 - 0.0 - - - - - - -
30/01:30am 25.4 NW 5 6 1013.0 - 0.0 - - - - - - -
30/01:00am 25.9 WNW 5 7 1013.2 - 0.0 - - - - - - -
30/12:30am 26.6 NW 7 8 1013.3 - 0.0 - - - - - - -
30/12:00am 27.1 WNW 7 8 1013.3 - 0.0 - - - - - - -
 
Date/Time
CST
Temp
°C
Wind Pressure Rain since
9am
mm
Weather Cloud Vis
km
Sea
Height
m
Swell
Dir  Spd
kts
Gust
kts
hPa Trend Height
m
Period
s
Dir
29/11:30pm 27.3 NW 5 8 1013.3 - 0.0 - - - - - - -
29/11:00pm 27.2 N 4 6 1013.2 - 0.0 - - - - - - -
29/10:30pm 27.3 N 8 10 1013.1 - 0.0 - - - - - - -
29/10:00pm 27.4 N 7 9 1013.1 - 0.0 - - - - - - -
29/09:30pm 27.3 NNW 5 7 1013.1 - 0.0 - - - - - - -
29/09:00pm 27.3 N 3 11 1012.7 - 0.0 - - - - - - -
29/08:30pm 27.3 N 9 16 1012.4 - 0.0 - - - - - - -
29/08:00pm 27.4 N 14 20 1011.9 - 0.0 - - - - - - -
29/07:30pm 27.4 N 17 22 1011.4 - 0.0 - - - - - - -
29/07:00pm 27.8 N 16 25 1010.7 - 0.0 - - - - - - -
29/06:30pm 28.7 N 17 24 1010.3 - 0.0 - - - - - - -
29/06:00pm 29.7 N 16 24 1010.2 - 0.0 - - - - - - -
29/05:30pm 31.0 N 16 23 1009.8 - 0.0 - - - - - - -
29/05:00pm 32.2 N 17 21 1009.6 - 0.0 - - - - - - -
29/04:30pm 32.3 N 17 24 1009.4 - 0.0 - - - - - - -
29/04:00pm 33.6 N 15 21 1009.4 - 0.0 - - - - - - -
29/03:30pm 34.2 NNE 15 22 1009.4 - 0.0 - - - - - - -
29/03:00pm 35.1 N 12 18 1009.6 - 0.0 - - - - - - -
29/02:30pm 33.8 N 10 17 1010.2 - 0.0 - - - - - - -
29/02:00pm 33.7 N 11 16 1010.4 - 0.0 - - - - - - -
29/01:30pm 34.5 N 10 16 1010.8 - 0.0 - - - - - - -
29/01:00pm 34.3 NNE 10 22 1011.2 - 0.0 - - - - - - -
29/12:30pm 33.2 N 9 18 1011.6 - 0.0 - - - - - - -
29/12:00pm 32.5 N 9 14 1012.1 - 0.0 - - - - - - -
29/11:30am 31.1 N 4 11 1012.8 - 0.0 - - - - - - -
29/11:00am 31.4 NW 5 11 1013.1 - 0.0 - - - - - - -
29/10:30am 30.2 NNW 5 8 1013.4 - 0.0 - - - - - - -
29/10:00am 29.5 NNE 5 8 1013.7 - 0.0 - - - - - - -
29/09:30am 28.0 SE 4 6 1013.8 - 0.0 - - - - - - -
29/09:00am 26.5 SE 9 11 1013.7 - 0.0 - - - - - - -
29/08:30am 25.7 ESE 8 9 1013.5 - 0.0 - - - - - - -
29/08:00am 23.8 E 8 9 1013.3 - 0.0 - - - - - - -
29/07:30am 23.1 ESE 9 11 1013.0 - 0.0 - - - - - - -
29/07:00am 22.3 ESE 9 11 1012.4 - 0.0 - - - - - - -
29/06:30am 21.9 ESE 5 7 1012.0 - 0.0 - - - - - - -
29/06:00am 22.0 CALM 0 0 1011.7 - 0.0 - - - - - - -
29/05:30am 21.7 NNW 3 4 1011.4 - 0.0 - - - - - - -
29/05:00am 22.0 CALM 0 0 1011.4 - 0.0 - - - - - - -
29/04:30am 22.2 CALM 0 0 1011.4 - 0.0 - - - - - - -
29/04:00am 23.0 WSW 1 3 1011.4 - 0.0 - - - - - - -
29/03:30am 22.8 CALM 0 0 1011.4 - 0.0 - - - - - - -
29/03:00am 23.5 WSW 3 4 1011.4 - 0.0 - - - - - - -
29/02:30am 24.5 WNW 5 6 1011.6 - 0.0 - - - - - - -
29/02:00am 24.9 W 4 6 1011.8 - 0.0 - - - - - - -
29/01:30am 25.0 WSW 4 6 1012.1 - 0.0 - - - - - - -
29/01:00am 25.7 WNW 7 8 1012.5 - 0.0 - - - - - - -
29/12:30am 24.9 NW 2 4 1012.6 - 0.0 - - - - - - -
29/12:00am 25.3 NNW 3 4 1012.7 - 0.0 - - - - - - -
 
Date/Time
CST
Temp
°C
Wind Pressure Rain since
9am
mm
Weather Cloud Vis
km
Sea
Height
m
Swell
Dir  Spd
kts
Gust
kts
hPa Trend Height
m
Period
s
Dir
28/11:30pm 25.5 N 3 5 1012.8 - 0.0 - - - - - - -
28/11:00pm 25.7 N 5 6 1012.7 - 0.0 - - - - - - -
28/10:30pm 26.7 N 6 11 1012.7 - 0.0 - - - - - - -
28/10:00pm 26.0 SSW 3 7 1012.5 - 0.0 - - - - - - -
28/09:30pm 26.5 W 3 5 1012.3 - 0.0 - - - - - - -
28/09:00pm 26.8 N 10 15 1011.8 - 0.0 - - - - - - -
28/08:30pm 27.3 N 13 21 1011.5 - 0.0 - - - - - - -
28/08:00pm 27.3 N 14 18 1010.9 - 0.0 - - - - - - -
28/07:30pm 27.5 N 14 21 1010.7 - 0.0 - - - - - - -
28/07:00pm 28.1 N 16 22 1010.5 - 0.0 - - - - - - -
28/06:30pm 29.5 N 18 23 1010.2 - 0.0 - - - - - - -
28/06:00pm 31.0 N 16 21 1010.1 - 0.0 - - - - - - -
28/05:30pm 32.7 N 14 20 1010.1 - 0.0 - - - - - - -

Other Formats:

Comma delimited format used in spreadsheet applications
http://www.bom.gov.au/fwo/IDD60701/IDD60701.95214.axf

JavaScript Object Notation format (JSON) in row-major order
http://www.bom.gov.au/fwo/IDD60701/IDD60701.95214.json